sensor_id;sensor_type;location;lat;lon;timestamp;P1;durP1;ratioP1;P2;durP2;ratioP2
73452;SDS011;61687;56.232;43.854;2022-11-15T00:01:28;5.27;;;2.73;;
73452;SDS011;61687;56.232;43.854;2022-11-15T00:04:13;9.88;;;2.35;;
73452;SDS011;61687;56.232;43.854;2022-11-15T00:06:58;10.70;;;3.53;;
73452;SDS011;61687;56.232;43.854;2022-11-15T00:09:42;4.63;;;2.63;;
73452;SDS011;61687;56.232;43.854;2022-11-15T00:12:28;8.13;;;3.03;;
73452;SDS011;61687;56.232;43.854;2022-11-15T00:15:13;4.57;;;3.00;;
73452;SDS011;61687;56.232;43.854;2022-11-15T00:17:57;6.70;;;3.00;;
73452;SDS011;61687;56.232;43.854;2022-11-15T00:20:42;6.00;;;3.20;;
73452;SDS011;61687;56.232;43.854;2022-11-15T00:23:27;5.85;;;2.50;;
73452;SDS011;61687;56.232;43.854;2022-11-15T00:26:12;5.70;;;2.22;;
73452;SDS011;61687;56.232;43.854;2022-11-15T00:28:58;4.73;;;2.17;;
73452;SDS011;61687;56.232;43.854;2022-11-15T00:31:42;3.83;;;2.63;;
73452;SDS011;61687;56.232;43.854;2022-11-15T00:34:27;5.80;;;2.83;;
73452;SDS011;61687;56.232;43.854;2022-11-15T00:37:11;7.85;;;2.50;;
73452;SDS011;61687;56.232;43.854;2022-11-15T00:39:56;5.05;;;3.00;;
73452;SDS011;61687;56.232;43.854;2022-11-15T00:42:41;5.43;;;2.57;;
73452;SDS011;61687;56.232;43.854;2022-11-15T00:45:25;4.95;;;2.55;;
73452;SDS011;61687;56.232;43.854;2022-11-15T00:48:10;4.53;;;2.15;;
73452;SDS011;61687;56.232;43.854;2022-11-15T00:50:54;3.13;;;2.30;;
73452;SDS011;61687;56.232;43.854;2022-11-15T00:53:39;5.80;;;3.20;;
73452;SDS011;61687;56.232;43.854;2022-11-15T00:56:23;4.50;;;2.67;;
73452;SDS011;61687;56.232;43.854;2022-11-15T00:59:08;4.97;;;2.45;;
73452;SDS011;61687;56.232;43.854;2022-11-15T01:01:52;3.90;;;2.67;;
73452;SDS011;61687;56.232;43.854;2022-11-15T01:04:37;4.47;;;2.92;;
73452;SDS011;61687;56.232;43.854;2022-11-15T01:07:22;4.97;;;3.35;;
73452;SDS011;61687;56.232;43.854;2022-11-15T01:10:06;5.37;;;2.90;;
73452;SDS011;61687;56.232;43.854;2022-11-15T01:12:51;5.88;;;2.63;;
73452;SDS011;61687;56.232;43.854;2022-11-15T01:15:38;3.75;;;2.58;;
73452;SDS011;61687;56.232;43.854;2022-11-15T01:18:24;4.50;;;2.67;;
73452;SDS011;61687;56.232;43.854;2022-11-15T01:21:11;5.15;;;2.78;;
73452;SDS011;61687;56.232;43.854;2022-11-15T01:23:58;4.80;;;2.67;;
73452;SDS011;61687;56.232;43.854;2022-11-15T01:26:42;4.68;;;2.30;;
73452;SDS011;61687;56.232;43.854;2022-11-15T01:29:27;6.03;;;2.88;;
73452;SDS011;61687;56.232;43.854;2022-11-15T01:32:12;4.00;;;2.80;;
73452;SDS011;61687;56.232;43.854;2022-11-15T01:34:56;4.32;;;2.85;;
73452;SDS011;61687;56.232;43.854;2022-11-15T01:37:41;4.30;;;2.53;;
73452;SDS011;61687;56.232;43.854;2022-11-15T01:40:26;5.47;;;2.30;;
73452;SDS011;61687;56.232;43.854;2022-11-15T01:46:34;4.50;;;2.70;;
73452;SDS011;61687;56.232;43.854;2022-11-15T01:49:21;3.85;;;2.75;;
73452;SDS011;61687;56.232;43.854;2022-11-15T01:52:09;3.77;;;2.57;;
73452;SDS011;61687;56.232;43.854;2022-11-15T01:55:05;5.90;;;2.65;;
73452;SDS011;61687;56.232;43.854;2022-11-15T01:57:58;4.43;;;2.85;;
73452;SDS011;61687;56.232;43.854;2022-11-15T02:00:45;3.63;;;2.30;;
73452;SDS011;61687;56.232;43.854;2022-11-15T02:03:34;6.88;;;2.90;;
73452;SDS011;61687;56.232;43.854;2022-11-15T02:06:25;3.33;;;2.33;;
73452;SDS011;61687;56.232;43.854;2022-11-15T02:09:10;10.35;;;2.55;;
73452;SDS011;61687;56.232;43.854;2022-11-15T02:11:56;4.45;;;2.80;;
73452;SDS011;61687;56.232;43.854;2022-11-15T02:14:42;4.40;;;2.58;;
73452;SDS011;61687;56.232;43.854;2022-11-15T02:17:46;6.38;;;2.65;;
73452;SDS011;61687;56.232;43.854;2022-11-15T02:30:18;3.53;;;2.78;;
73452;SDS011;61687;56.232;43.854;2022-11-15T02:36:12;7.07;;;2.30;;
73452;SDS011;61687;56.232;43.854;2022-11-15T02:39:04;5.50;;;2.15;;
73452;SDS011;61687;56.232;43.854;2022-11-15T02:42:04;5.45;;;2.95;;
73452;SDS011;61687;56.232;43.854;2022-11-15T02:45:16;4.88;;;2.88;;
73452;SDS011;61687;56.232;43.854;2022-11-15T02:48:05;4.93;;;3.13;;
73452;SDS011;61687;56.232;43.854;2022-11-15T02:50:51;7.03;;;2.67;;
73452;SDS011;61687;56.232;43.854;2022-11-15T02:53:36;4.82;;;2.15;;
73452;SDS011;61687;56.232;43.854;2022-11-15T02:56:20;10.10;;;3.25;;
73452;SDS011;61687;56.232;43.854;2022-11-15T03:00:07;6.22;;;2.92;;
73452;SDS011;61687;56.232;43.854;2022-11-15T03:02:26;5.07;;;2.80;;
73452;SDS011;61687;56.232;43.854;2022-11-15T03:11:59;5.43;;;3.65;;
73452;SDS011;61687;56.232;43.854;2022-11-15T03:18:00;7.47;;;3.03;;
73452;SDS011;61687;56.232;43.854;2022-11-15T03:20:48;6.33;;;2.60;;
73452;SDS011;61687;56.232;43.854;2022-11-15T03:23:34;5.10;;;3.03;;
73452;SDS011;61687;56.232;43.854;2022-11-15T03:26:21;4.28;;;3.50;;
73452;SDS011;61687;56.232;43.854;2022-11-15T03:29:16;6.05;;;2.95;;
73452;SDS011;61687;56.232;43.854;2022-11-15T03:32:05;7.75;;;3.10;;
73452;SDS011;61687;56.232;43.854;2022-11-15T03:35:02;4.83;;;3.03;;
73452;SDS011;61687;56.232;43.854;2022-11-15T03:38:11;6.25;;;3.72;;
73452;SDS011;61687;56.232;43.854;2022-11-15T03:41:12;7.78;;;3.17;;
73452;SDS011;61687;56.232;43.854;2022-11-15T03:47:09;6.43;;;3.55;;
73452;SDS011;61687;56.232;43.854;2022-11-15T03:49:59;6.10;;;3.40;;
73452;SDS011;61687;56.232;43.854;2022-11-15T03:52:49;4.72;;;2.92;;
73452;SDS011;61687;56.232;43.854;2022-11-15T03:55:34;5.68;;;3.45;;
73452;SDS011;61687;56.232;43.854;2022-11-15T03:58:18;6.55;;;3.17;;
73452;SDS011;61687;56.232;43.854;2022-11-15T04:01:03;6.82;;;3.33;;
73452;SDS011;61687;56.232;43.854;2022-11-15T04:03:48;7.27;;;3.60;;
73452;SDS011;61687;56.232;43.854;2022-11-15T04:06:33;7.22;;;2.75;;
73452;SDS011;61687;56.232;43.854;2022-11-15T04:09:17;9.50;;;3.42;;
73452;SDS011;61687;56.232;43.854;2022-11-15T04:12:01;9.65;;;2.95;;
73452;SDS011;61687;56.232;43.854;2022-11-15T04:14:45;6.65;;;3.55;;
73452;SDS011;61687;56.232;43.854;2022-11-15T04:17:51;4.20;;;3.07;;
73452;SDS011;61687;56.232;43.854;2022-11-15T04:20:37;5.22;;;3.17;;
73452;SDS011;61687;56.232;43.854;2022-11-15T04:23:40;9.77;;;3.25;;
73452;SDS011;61687;56.232;43.854;2022-11-15T04:26:50;7.40;;;3.08;;
73452;SDS011;61687;56.232;43.854;2022-11-15T04:29:35;6.13;;;3.15;;
73452;SDS011;61687;56.232;43.854;2022-11-15T04:32:19;6.20;;;3.50;;
73452;SDS011;61687;56.232;43.854;2022-11-15T04:35:04;7.32;;;3.28;;
73452;SDS011;61687;56.232;43.854;2022-11-15T04:37:49;6.82;;;3.20;;
73452;SDS011;61687;56.232;43.854;2022-11-15T04:40:33;11.38;;;3.85;;
73452;SDS011;61687;56.232;43.854;2022-11-15T04:43:18;7.15;;;2.97;;
73452;SDS011;61687;56.232;43.854;2022-11-15T04:46:02;8.20;;;2.90;;
73452;SDS011;61687;56.232;43.854;2022-11-15T04:48:46;5.20;;;2.58;;
73452;SDS011;61687;56.232;43.854;2022-11-15T04:51:31;5.18;;;3.03;;
73452;SDS011;61687;56.232;43.854;2022-11-15T04:54:15;5.22;;;2.88;;
73452;SDS011;61687;56.232;43.854;2022-11-15T04:57:00;5.38;;;2.95;;
73452;SDS011;61687;56.232;43.854;2022-11-15T04:59:45;10.70;;;3.23;;
73452;SDS011;61687;56.232;43.854;2022-11-15T05:02:31;6.72;;;3.03;;
73452;SDS011;61687;56.232;43.854;2022-11-15T05:05:34;7.57;;;3.28;;
73452;SDS011;61687;56.232;43.854;2022-11-15T05:08:18;12.82;;;3.55;;
73452;SDS011;61687;56.232;43.854;2022-11-15T05:11:02;8.00;;;3.20;;
73452;SDS011;61687;56.232;43.854;2022-11-15T05:13:47;9.33;;;3.87;;
73452;SDS011;61687;56.232;43.854;2022-11-15T05:16:31;7.43;;;3.22;;
73452;SDS011;61687;56.232;43.854;2022-11-15T05:19:15;6.18;;;3.35;;
73452;SDS011;61687;56.232;43.854;2022-11-15T05:21:59;13.05;;;3.80;;
73452;SDS011;61687;56.232;43.854;2022-11-15T05:24:44;9.75;;;3.45;;
73452;SDS011;61687;56.232;43.854;2022-11-15T05:27:29;10.37;;;3.90;;
73452;SDS011;61687;56.232;43.854;2022-11-15T05:30:14;5.97;;;2.67;;
73452;SDS011;61687;56.232;43.854;2022-11-15T05:32:59;9.05;;;3.22;;
73452;SDS011;61687;56.232;43.854;2022-11-15T05:35:46;9.95;;;3.15;;
73452;SDS011;61687;56.232;43.854;2022-11-15T05:38:38;8.93;;;3.70;;
73452;SDS011;61687;56.232;43.854;2022-11-15T05:41:29;8.30;;;3.00;;
73452;SDS011;61687;56.232;43.854;2022-11-15T05:44:17;11.93;;;3.08;;
73452;SDS011;61687;56.232;43.854;2022-11-15T05:47:04;9.70;;;3.47;;
73452;SDS011;61687;56.232;43.854;2022-11-15T05:49:52;7.50;;;3.50;;
73452;SDS011;61687;56.232;43.854;2022-11-15T05:52:37;8.02;;;3.85;;
73452;SDS011;61687;56.232;43.854;2022-11-15T05:55:22;7.37;;;2.83;;
73452;SDS011;61687;56.232;43.854;2022-11-15T05:58:06;9.40;;;3.42;;
73452;SDS011;61687;56.232;43.854;2022-11-15T06:00:51;8.00;;;3.60;;
73452;SDS011;61687;56.232;43.854;2022-11-15T06:03:36;9.48;;;4.25;;
73452;SDS011;61687;56.232;43.854;2022-11-15T06:06:20;9.63;;;3.80;;
73452;SDS011;61687;56.232;43.854;2022-11-15T06:09:04;8.10;;;4.00;;
73452;SDS011;61687;56.232;43.854;2022-11-15T06:11:49;10.88;;;2.63;;
73452;SDS011;61687;56.232;43.854;2022-11-15T06:14:33;10.45;;;4.15;;
73452;SDS011;61687;56.232;43.854;2022-11-15T06:17:17;7.47;;;3.35;;
73452;SDS011;61687;56.232;43.854;2022-11-15T06:20:01;10.50;;;4.03;;
73452;SDS011;61687;56.232;43.854;2022-11-15T06:22:47;6.03;;;3.10;;
73452;SDS011;61687;56.232;43.854;2022-11-15T06:25:31;6.95;;;3.72;;
73452;SDS011;61687;56.232;43.854;2022-11-15T06:28:15;11.85;;;3.90;;
73452;SDS011;61687;56.232;43.854;2022-11-15T06:31:06;7.30;;;3.75;;
73452;SDS011;61687;56.232;43.854;2022-11-15T06:33:55;11.18;;;3.13;;
73452;SDS011;61687;56.232;43.854;2022-11-15T06:36:39;6.03;;;2.60;;
73452;SDS011;61687;56.232;43.854;2022-11-15T06:39:23;7.70;;;3.55;;
73452;SDS011;61687;56.232;43.854;2022-11-15T06:42:08;10.00;;;3.97;;
73452;SDS011;61687;56.232;43.854;2022-11-15T06:44:52;6.63;;;3.50;;
73452;SDS011;61687;56.232;43.854;2022-11-15T06:47:44;10.50;;;3.42;;
73452;SDS011;61687;56.232;43.854;2022-11-15T06:50:30;9.73;;;3.40;;
73452;SDS011;61687;56.232;43.854;2022-11-15T06:53:14;9.90;;;3.67;;
73452;SDS011;61687;56.232;43.854;2022-11-15T06:56:02;5.45;;;3.53;;
73452;SDS011;61687;56.232;43.854;2022-11-15T06:58:48;6.93;;;4.03;;
73452;SDS011;61687;56.232;43.854;2022-11-15T07:01:32;8.35;;;4.13;;
73452;SDS011;61687;56.232;43.854;2022-11-15T07:04:17;6.33;;;3.00;;
73452;SDS011;61687;56.232;43.854;2022-11-15T07:07:01;8.88;;;3.13;;
73452;SDS011;61687;56.232;43.854;2022-11-15T07:09:45;9.70;;;3.40;;
73452;SDS011;61687;56.232;43.854;2022-11-15T07:12:30;7.60;;;3.05;;
73452;SDS011;61687;56.232;43.854;2022-11-15T07:15:17;9.40;;;3.22;;
73452;SDS011;61687;56.232;43.854;2022-11-15T07:18:02;7.33;;;3.57;;
73452;SDS011;61687;56.232;43.854;2022-11-15T07:20:46;7.95;;;3.17;;
73452;SDS011;61687;56.232;43.854;2022-11-15T07:23:31;7.95;;;4.20;;
73452;SDS011;61687;56.232;43.854;2022-11-15T07:26:15;6.93;;;3.30;;
73452;SDS011;61687;56.232;43.854;2022-11-15T07:28:59;6.75;;;3.58;;
73452;SDS011;61687;56.232;43.854;2022-11-15T07:31:44;9.70;;;4.17;;
73452;SDS011;61687;56.232;43.854;2022-11-15T07:34:28;10.60;;;4.03;;
73452;SDS011;61687;56.232;43.854;2022-11-15T07:37:12;14.38;;;3.80;;
73452;SDS011;61687;56.232;43.854;2022-11-15T07:39:56;6.65;;;3.75;;
73452;SDS011;61687;56.232;43.854;2022-11-15T07:42:41;9.02;;;3.25;;
73452;SDS011;61687;56.232;43.854;2022-11-15T07:45:44;13.23;;;3.13;;
73452;SDS011;61687;56.232;43.854;2022-11-15T07:48:29;5.68;;;3.60;;
73452;SDS011;61687;56.232;43.854;2022-11-15T07:51:15;9.85;;;5.05;;
73452;SDS011;61687;56.232;43.854;2022-11-15T07:54:00;9.15;;;3.63;;
73452;SDS011;61687;56.232;43.854;2022-11-15T07:56:45;9.93;;;4.25;;
73452;SDS011;61687;56.232;43.854;2022-11-15T07:59:29;9.33;;;4.20;;
73452;SDS011;61687;56.232;43.854;2022-11-15T08:02:13;6.20;;;3.17;;
73452;SDS011;61687;56.232;43.854;2022-11-15T08:05:00;7.88;;;3.63;;
73452;SDS011;61687;56.232;43.854;2022-11-15T08:07:45;5.60;;;2.95;;
73452;SDS011;61687;56.232;43.854;2022-11-15T08:10:29;9.27;;;3.65;;
73452;SDS011;61687;56.232;43.854;2022-11-15T08:13:15;10.23;;;3.40;;
73452;SDS011;61687;56.232;43.854;2022-11-15T08:16:00;6.88;;;2.72;;
73452;SDS011;61687;56.232;43.854;2022-11-15T08:18:46;7.38;;;3.60;;
73452;SDS011;61687;56.232;43.854;2022-11-15T08:21:31;5.85;;;3.25;;
73452;SDS011;61687;56.232;43.854;2022-11-15T08:24:15;4.70;;;3.53;;
73452;SDS011;61687;56.232;43.854;2022-11-15T08:26:59;5.87;;;3.93;;
73452;SDS011;61687;56.232;43.854;2022-11-15T08:29:44;7.75;;;3.40;;
73452;SDS011;61687;56.232;43.854;2022-11-15T08:32:31;10.15;;;3.85;;
73452;SDS011;61687;56.232;43.854;2022-11-15T08:35:15;5.32;;;2.78;;
73452;SDS011;61687;56.232;43.854;2022-11-15T08:38:01;4.82;;;3.40;;
73452;SDS011;61687;56.232;43.854;2022-11-15T08:40:45;7.23;;;2.73;;
73452;SDS011;61687;56.232;43.854;2022-11-15T08:43:29;11.95;;;4.13;;
73452;SDS011;61687;56.232;43.854;2022-11-15T08:46:14;13.80;;;4.18;;
73452;SDS011;61687;56.232;43.854;2022-11-15T08:48:58;7.97;;;3.80;;
73452;SDS011;61687;56.232;43.854;2022-11-15T08:51:42;9.18;;;3.53;;
73452;SDS011;61687;56.232;43.854;2022-11-15T08:54:27;8.03;;;3.37;;
73452;SDS011;61687;56.232;43.854;2022-11-15T08:57:11;7.47;;;3.33;;
73452;SDS011;61687;56.232;43.854;2022-11-15T08:59:56;7.68;;;3.65;;
73452;SDS011;61687;56.232;43.854;2022-11-15T09:02:40;7.97;;;3.35;;
73452;SDS011;61687;56.232;43.854;2022-11-15T09:05:25;11.30;;;4.00;;
73452;SDS011;61687;56.232;43.854;2022-11-15T09:08:10;6.87;;;3.60;;
73452;SDS011;61687;56.232;43.854;2022-11-15T09:10:56;11.15;;;2.92;;
73452;SDS011;61687;56.232;43.854;2022-11-15T09:13:42;8.60;;;3.90;;
73452;SDS011;61687;56.232;43.854;2022-11-15T09:16:26;7.60;;;2.92;;
73452;SDS011;61687;56.232;43.854;2022-11-15T09:19:10;5.43;;;3.28;;
73452;SDS011;61687;56.232;43.854;2022-11-15T09:21:54;13.30;;;3.50;;
73452;SDS011;61687;56.232;43.854;2022-11-15T09:24:39;7.70;;;3.40;;
73452;SDS011;61687;56.232;43.854;2022-11-15T09:27:27;5.45;;;3.50;;
73452;SDS011;61687;56.232;43.854;2022-11-15T09:30:12;7.93;;;3.03;;
73452;SDS011;61687;56.232;43.854;2022-11-15T09:32:56;8.80;;;3.78;;
73452;SDS011;61687;56.232;43.854;2022-11-15T09:35:41;4.93;;;2.70;;
73452;SDS011;61687;56.232;43.854;2022-11-15T09:38:26;4.97;;;3.40;;
73452;SDS011;61687;56.232;43.854;2022-11-15T09:50:17;4.93;;;3.13;;
73452;SDS011;61687;56.232;43.854;2022-11-15T09:52:59;5.72;;;3.28;;
73452;SDS011;61687;56.232;43.854;2022-11-15T09:55:29;5.65;;;3.72;;
73452;SDS011;61687;56.232;43.854;2022-11-15T09:58:43;7.22;;;3.88;;
73452;SDS011;61687;56.232;43.854;2022-11-15T10:04:06;8.57;;;3.88;;
73452;SDS011;61687;56.232;43.854;2022-11-15T10:06:32;7.35;;;4.63;;
73452;SDS011;61687;56.232;43.854;2022-11-15T10:09:06;11.43;;;3.55;;
73452;SDS011;61687;56.232;43.854;2022-11-15T10:11:39;5.28;;;3.70;;
73452;SDS011;61687;56.232;43.854;2022-11-15T10:14:13;9.33;;;4.20;;
73452;SDS011;61687;56.232;43.854;2022-11-15T10:25:13;8.00;;;3.90;;
73452;SDS011;61687;56.232;43.854;2022-11-15T10:27:43;8.13;;;3.87;;
73452;SDS011;61687;56.232;43.854;2022-11-15T10:30:12;10.07;;;3.70;;
73452;SDS011;61687;56.232;43.854;2022-11-15T10:32:41;8.18;;;3.58;;
73452;SDS011;61687;56.232;43.854;2022-11-15T10:37:51;9.25;;;5.07;;
73452;SDS011;61687;56.232;43.854;2022-11-15T10:40:29;9.43;;;3.40;;
73452;SDS011;61687;56.232;43.854;2022-11-15T10:45:53;9.45;;;4.28;;
73452;SDS011;61687;56.232;43.854;2022-11-15T10:48:20;11.40;;;4.20;;
73452;SDS011;61687;56.232;43.854;2022-11-15T10:50:48;12.95;;;3.70;;
73452;SDS011;61687;56.232;43.854;2022-11-15T10:53:26;6.97;;;4.25;;
73452;SDS011;61687;56.232;43.854;2022-11-15T10:55:57;7.63;;;3.38;;
73452;SDS011;61687;56.232;43.854;2022-11-15T10:58:37;8.73;;;3.90;;
73452;SDS011;61687;56.232;43.854;2022-11-15T11:06:27;7.03;;;3.53;;
73452;SDS011;61687;56.232;43.854;2022-11-15T11:09:00;5.72;;;3.90;;
73452;SDS011;61687;56.232;43.854;2022-11-15T11:11:46;7.35;;;4.22;;
73452;SDS011;61687;56.232;43.854;2022-11-15T11:14:28;8.60;;;3.80;;
73452;SDS011;61687;56.232;43.854;2022-11-15T11:25:50;6.15;;;3.85;;
73452;SDS011;61687;56.232;43.854;2022-11-15T11:31:50;19.25;;;3.47;;
73452;SDS011;61687;56.232;43.854;2022-11-15T11:45:18;9.98;;;3.85;;
73452;SDS011;61687;56.232;43.854;2022-11-15T11:51:02;7.35;;;4.30;;
73452;SDS011;61687;56.232;43.854;2022-11-15T11:56:12;10.20;;;3.73;;
73452;SDS011;61687;56.232;43.854;2022-11-15T11:58:52;6.60;;;3.78;;
73452;SDS011;61687;56.232;43.854;2022-11-15T12:01:24;6.72;;;3.60;;
73452;SDS011;61687;56.232;43.854;2022-11-15T12:03:59;6.72;;;3.88;;
73452;SDS011;61687;56.232;43.854;2022-11-15T12:06:49;10.50;;;3.08;;
73452;SDS011;61687;56.232;43.854;2022-11-15T12:14:51;6.47;;;3.33;;
73452;SDS011;61687;56.232;43.854;2022-11-15T12:17:23;7.47;;;3.47;;
73452;SDS011;61687;56.232;43.854;2022-11-15T12:19:52;7.82;;;3.85;;
73452;SDS011;61687;56.232;43.854;2022-11-15T12:22:23;9.70;;;3.67;;
73452;SDS011;61687;56.232;43.854;2022-11-15T12:28:08;10.20;;;3.72;;
73452;SDS011;61687;56.232;43.854;2022-11-15T12:30:50;9.65;;;3.70;;
73452;SDS011;61687;56.232;43.854;2022-11-15T12:33:33;10.35;;;4.20;;
73452;SDS011;61687;56.232;43.854;2022-11-15T12:36:03;11.77;;;4.20;;
73452;SDS011;61687;56.232;43.854;2022-11-15T12:41:30;11.25;;;4.95;;
73452;SDS011;61687;56.232;43.854;2022-11-15T12:44:01;10.57;;;4.03;;
73452;SDS011;61687;56.232;43.854;2022-11-15T12:49:01;6.13;;;3.70;;
73452;SDS011;61687;56.232;43.854;2022-11-15T13:02:22;7.45;;;4.25;;
73452;SDS011;61687;56.232;43.854;2022-11-15T13:04:51;11.27;;;3.72;;
73452;SDS011;61687;56.232;43.854;2022-11-15T13:10:00;8.88;;;4.40;;
73452;SDS011;61687;56.232;43.854;2022-11-15T13:20:19;17.02;;;5.25;;
73452;SDS011;61687;56.232;43.854;2022-11-15T13:28:02;9.93;;;5.47;;
73452;SDS011;61687;56.232;43.854;2022-11-15T13:30:58;15.65;;;5.32;;
73452;SDS011;61687;56.232;43.854;2022-11-15T13:33:36;17.73;;;6.45;;
73452;SDS011;61687;56.232;43.854;2022-11-15T13:36:07;12.38;;;5.18;;
73452;SDS011;61687;56.232;43.854;2022-11-15T13:38:40;17.77;;;5.88;;
73452;SDS011;61687;56.232;43.854;2022-11-15T13:41:19;13.50;;;5.63;;
73452;SDS011;61687;56.232;43.854;2022-11-15T13:43:47;13.93;;;5.75;;
73452;SDS011;61687;56.232;43.854;2022-11-15T13:49:00;13.82;;;5.50;;
73452;SDS011;61687;56.232;43.854;2022-11-15T13:51:46;14.02;;;6.05;;
73452;SDS011;61687;56.232;43.854;2022-11-15T13:54:20;13.10;;;6.30;;
73452;SDS011;61687;56.232;43.854;2022-11-15T13:57:02;19.13;;;6.40;;
73452;SDS011;61687;56.232;43.854;2022-11-15T13:59:35;13.90;;;5.95;;
73452;SDS011;61687;56.232;43.854;2022-11-15T14:02:13;20.88;;;5.60;;
73452;SDS011;61687;56.232;43.854;2022-11-15T14:04:46;14.60;;;6.10;;
73452;SDS011;61687;56.232;43.854;2022-11-15T14:07:17;17.55;;;6.55;;
73452;SDS011;61687;56.232;43.854;2022-11-15T14:09:45;15.00;;;5.93;;
73452;SDS011;61687;56.232;43.854;2022-11-15T14:14:46;15.13;;;5.60;;
73452;SDS011;61687;56.232;43.854;2022-11-15T14:17:19;12.85;;;6.15;;
73452;SDS011;61687;56.232;43.854;2022-11-15T14:22:57;14.45;;;5.25;;
73452;SDS011;61687;56.232;43.854;2022-11-15T14:25:28;10.48;;;5.30;;
73452;SDS011;61687;56.232;43.854;2022-11-15T14:30:41;13.55;;;4.85;;
73452;SDS011;61687;56.232;43.854;2022-11-15T14:33:17;17.75;;;5.50;;
73452;SDS011;61687;56.232;43.854;2022-11-15T14:36:05;8.95;;;4.25;;
73452;SDS011;61687;56.232;43.854;2022-11-15T14:38:41;12.88;;;4.95;;
73452;SDS011;61687;56.232;43.854;2022-11-15T14:41:18;18.15;;;5.03;;
73452;SDS011;61687;56.232;43.854;2022-11-15T14:43:48;15.75;;;4.93;;
73452;SDS011;61687;56.232;43.854;2022-11-15T14:46:15;17.67;;;4.32;;
73452;SDS011;61687;56.232;43.854;2022-11-15T14:48:41;12.05;;;5.32;;
73452;SDS011;61687;56.232;43.854;2022-11-15T14:51:14;11.95;;;4.70;;
73452;SDS011;61687;56.232;43.854;2022-11-15T14:53:42;16.85;;;5.65;;
73452;SDS011;61687;56.232;43.854;2022-11-15T14:56:09;10.15;;;4.50;;
73452;SDS011;61687;56.232;43.854;2022-11-15T14:58:35;14.43;;;4.97;;
73452;SDS011;61687;56.232;43.854;2022-11-15T15:01:02;15.68;;;5.00;;
73452;SDS011;61687;56.232;43.854;2022-11-15T15:03:36;7.32;;;3.67;;
73452;SDS011;61687;56.232;43.854;2022-11-15T15:06:02;10.05;;;4.97;;
73452;SDS011;61687;56.232;43.854;2022-11-15T15:08:28;9.33;;;4.73;;
73452;SDS011;61687;56.232;43.854;2022-11-15T15:10:54;10.40;;;4.60;;
73452;SDS011;61687;56.232;43.854;2022-11-15T15:13:21;12.45;;;4.30;;
73452;SDS011;61687;56.232;43.854;2022-11-15T15:15:48;10.38;;;4.50;;
73452;SDS011;61687;56.232;43.854;2022-11-15T15:18:16;6.50;;;3.43;;
73452;SDS011;61687;56.232;43.854;2022-11-15T15:20:42;8.40;;;4.30;;
73452;SDS011;61687;56.232;43.854;2022-11-15T15:23:19;6.72;;;3.85;;
73452;SDS011;61687;56.232;43.854;2022-11-15T15:25:46;9.05;;;3.92;;
73452;SDS011;61687;56.232;43.854;2022-11-15T15:28:14;8.10;;;3.92;;
73452;SDS011;61687;56.232;43.854;2022-11-15T15:30:40;16.53;;;4.33;;
73452;SDS011;61687;56.232;43.854;2022-11-15T15:33:06;9.77;;;3.85;;
73452;SDS011;61687;56.232;43.854;2022-11-15T15:35:33;7.10;;;4.32;;
73452;SDS011;61687;56.232;43.854;2022-11-15T15:38:00;11.85;;;3.78;;
73452;SDS011;61687;56.232;43.854;2022-11-15T15:40:27;9.23;;;4.35;;
73452;SDS011;61687;56.232;43.854;2022-11-15T15:42:54;10.02;;;3.30;;
73452;SDS011;61687;56.232;43.854;2022-11-15T15:45:20;10.18;;;4.53;;
73452;SDS011;61687;56.232;43.854;2022-11-15T15:47:46;8.48;;;4.47;;
73452;SDS011;61687;56.232;43.854;2022-11-15T15:52:40;9.65;;;4.63;;
73452;SDS011;61687;56.232;43.854;2022-11-15T15:55:06;12.00;;;4.72;;
73452;SDS011;61687;56.232;43.854;2022-11-15T15:57:32;9.93;;;4.33;;
73452;SDS011;61687;56.232;43.854;2022-11-15T15:59:58;11.48;;;4.25;;
73452;SDS011;61687;56.232;43.854;2022-11-15T16:02:24;9.15;;;4.30;;
73452;SDS011;61687;56.232;43.854;2022-11-15T16:04:49;8.90;;;4.20;;
73452;SDS011;61687;56.232;43.854;2022-11-15T16:07:17;11.77;;;4.30;;
73452;SDS011;61687;56.232;43.854;2022-11-15T16:09:49;8.80;;;4.30;;
73452;SDS011;61687;56.232;43.854;2022-11-15T16:12:34;18.98;;;4.57;;
73452;SDS011;61687;56.232;43.854;2022-11-15T16:15:00;9.90;;;5.13;;
73452;SDS011;61687;56.232;43.854;2022-11-15T16:17:31;9.82;;;4.40;;
73452;SDS011;61687;56.232;43.854;2022-11-15T16:20:00;9.07;;;4.93;;
73452;SDS011;61687;56.232;43.854;2022-11-15T16:22:28;9.43;;;4.57;;
73452;SDS011;61687;56.232;43.854;2022-11-15T16:24:55;10.32;;;4.88;;
73452;SDS011;61687;56.232;43.854;2022-11-15T16:27:21;14.47;;;4.63;;
73452;SDS011;61687;56.232;43.854;2022-11-15T16:29:47;9.43;;;4.85;;
73452;SDS011;61687;56.232;43.854;2022-11-15T16:32:13;13.38;;;5.55;;
73452;SDS011;61687;56.232;43.854;2022-11-15T16:34:40;11.25;;;4.40;;
73452;SDS011;61687;56.232;43.854;2022-11-15T16:37:13;12.07;;;4.93;;
73452;SDS011;61687;56.232;43.854;2022-11-15T16:39:47;11.70;;;4.50;;
73452;SDS011;61687;56.232;43.854;2022-11-15T16:42:13;12.40;;;4.88;;
73452;SDS011;61687;56.232;43.854;2022-11-15T16:44:39;11.95;;;6.10;;
73452;SDS011;61687;56.232;43.854;2022-11-15T16:47:10;16.40;;;5.22;;
73452;SDS011;61687;56.232;43.854;2022-11-15T16:49:47;10.17;;;5.27;;
73452;SDS011;61687;56.232;43.854;2022-11-15T16:52:13;15.65;;;6.75;;
73452;SDS011;61687;56.232;43.854;2022-11-15T16:54:39;16.20;;;6.30;;
73452;SDS011;61687;56.232;43.854;2022-11-15T16:57:05;15.25;;;6.10;;
73452;SDS011;61687;56.232;43.854;2022-11-15T16:59:31;14.07;;;5.73;;
73452;SDS011;61687;56.232;43.854;2022-11-15T17:01:57;14.70;;;6.40;;
73452;SDS011;61687;56.232;43.854;2022-11-15T17:04:23;13.65;;;5.68;;
73452;SDS011;61687;56.232;43.854;2022-11-15T17:06:52;14.98;;;5.55;;
73452;SDS011;61687;56.232;43.854;2022-11-15T17:09:18;13.43;;;5.70;;
73452;SDS011;61687;56.232;43.854;2022-11-15T17:11:47;10.82;;;4.93;;
73452;SDS011;61687;56.232;43.854;2022-11-15T17:14:14;10.95;;;5.20;;
73452;SDS011;61687;56.232;43.854;2022-11-15T17:16:41;13.88;;;4.63;;
73452;SDS011;61687;56.232;43.854;2022-11-15T17:19:12;11.77;;;5.97;;
73452;SDS011;61687;56.232;43.854;2022-11-15T17:21:39;12.18;;;4.65;;
73452;SDS011;61687;56.232;43.854;2022-11-15T17:24:06;27.45;;;7.18;;
73452;SDS011;61687;56.232;43.854;2022-11-15T17:26:32;11.32;;;4.95;;
73452;SDS011;61687;56.232;43.854;2022-11-15T17:28:58;15.73;;;6.10;;
73452;SDS011;61687;56.232;43.854;2022-11-15T17:31:26;14.70;;;5.03;;
73452;SDS011;61687;56.232;43.854;2022-11-15T17:33:55;13.05;;;4.97;;
73452;SDS011;61687;56.232;43.854;2022-11-15T17:36:21;12.88;;;5.72;;
73452;SDS011;61687;56.232;43.854;2022-11-15T17:38:47;10.57;;;5.38;;
73452;SDS011;61687;56.232;43.854;2022-11-15T17:41:16;22.52;;;6.75;;
73452;SDS011;61687;56.232;43.854;2022-11-15T17:43:43;13.23;;;5.80;;
73452;SDS011;61687;56.232;43.854;2022-11-15T17:46:13;11.63;;;5.65;;
73452;SDS011;61687;56.232;43.854;2022-11-15T17:48:40;14.13;;;6.03;;
73452;SDS011;61687;56.232;43.854;2022-11-15T17:51:09;9.43;;;5.00;;
73452;SDS011;61687;56.232;43.854;2022-11-15T17:53:37;13.35;;;5.78;;
73452;SDS011;61687;56.232;43.854;2022-11-15T17:56:08;10.75;;;5.38;;
73452;SDS011;61687;56.232;43.854;2022-11-15T17:58:39;10.90;;;5.00;;
73452;SDS011;61687;56.232;43.854;2022-11-15T18:01:08;10.82;;;5.07;;
73452;SDS011;61687;56.232;43.854;2022-11-15T18:03:47;11.48;;;5.18;;
73452;SDS011;61687;56.232;43.854;2022-11-15T18:06:13;14.32;;;5.22;;
73452;SDS011;61687;56.232;43.854;2022-11-15T18:08:41;13.32;;;5.45;;